Peck, Idaho
Current Conditions -  °F | °C
As of 12:56 PM on Thursday 20 Nov 2014 (Local Time) from KLWS Reporting Station
Haze Haze  
Wind Chill: 41°   Ceiling: 5500
Heat Index: 41°   Visibility: 6mi
Dew Point: 34°   Wind: 0mph
Humidity: 76%   Direction: NA
Pressure: 30.06"   Gusts: NA
Location:  46.48°N, 116.42°W
Report Text: KLWS 202056Z 00000KT 6SM HZ OVC055 05/01 A3006 RMK AO2 SLP189 60000 T00500011 57013
Loading
Personal Weather Stations






























Interactive Weather Map New forecast layout! Learn more

10-Day Weather Forecast

Advertisements
Track Severe Weather on mobile